createdAt,value
2022-11-30T00:00:56.390Z,0
2022-11-30T00:02:12.677Z,0
2022-11-30T00:03:27.993Z,0
2022-11-30T00:04:44.292Z,0
2022-11-30T00:06:00.590Z,0
2022-11-30T00:07:16.872Z,0
2022-11-30T00:08:33.158Z,0
2022-11-30T00:09:49.468Z,0
2022-11-30T00:11:05.743Z,0
2022-11-30T00:12:22.053Z,0
2022-11-30T00:13:38.345Z,0
2022-11-30T00:14:54.630Z,0
2022-11-30T00:16:10.924Z,0
2022-11-30T00:17:27.219Z,0
2022-11-30T00:18:43.507Z,0
2022-11-30T00:19:58.829Z,0
2022-11-30T00:21:15.124Z,0
2022-11-30T00:22:31.410Z,0
2022-11-30T00:23:47.699Z,0
2022-11-30T00:25:03.998Z,0
2022-11-30T00:26:20.292Z,0
2022-11-30T00:27:36.585Z,0
2022-11-30T00:28:52.876Z,0
2022-11-30T00:30:09.164Z,0
2022-11-30T00:31:25.467Z,0
2022-11-30T00:32:41.748Z,0
2022-11-30T00:33:58.052Z,0
2022-11-30T00:35:14.348Z,0
2022-11-30T00:36:29.650Z,0
2022-11-30T00:37:45.939Z,0
2022-11-30T00:39:02.234Z,0
2022-11-30T00:40:18.521Z,0
2022-11-30T00:41:34.810Z,0
2022-11-30T00:42:51.119Z,0
2022-11-30T00:44:07.412Z,0
2022-11-30T00:45:23.708Z,0
2022-11-30T00:46:39.984Z,0
2022-11-30T00:47:56.277Z,0
2022-11-30T00:49:12.581Z,0
2022-11-30T00:50:28.878Z,0
2022-11-30T00:51:45.161Z,0
2022-11-30T00:53:00.472Z,0
2022-11-30T00:54:16.775Z,0
2022-11-30T00:55:33.053Z,0
2022-11-30T00:56:49.357Z,0
2022-11-30T00:58:05.640Z,0
2022-11-30T00:59:21.941Z,0
2022-11-30T01:00:38.234Z,0
2022-11-30T01:01:54.524Z,0
2022-11-30T01:03:10.826Z,0
2022-11-30T01:04:27.110Z,0
2022-11-30T01:05:43.401Z,0
2022-11-30T01:06:59.702Z,0
2022-11-30T01:08:15.980Z,0
2022-11-30T01:09:31.292Z,0
2022-11-30T01:10:47.590Z,0
2022-11-30T01:12:03.893Z,0
2022-11-30T01:13:20.176Z,0
2022-11-30T01:14:36.469Z,0
2022-11-30T01:15:52.759Z,0
2022-11-30T01:17:09.059Z,0
2022-11-30T01:19:41.638Z,0
2022-11-30T01:20:57.931Z,0
2022-11-30T01:22:14.219Z,0
2022-11-30T01:23:30.530Z,0
2022-11-30T01:24:46.814Z,0
2022-11-30T01:26:03.222Z,0
2022-11-30T01:27:19.513Z,0
2022-11-30T01:28:35.813Z,0
2022-11-30T01:29:52.103Z,0
2022-11-30T01:31:08.410Z,0
2022-11-30T01:32:24.695Z,0
2022-11-30T01:33:40.985Z,0
2022-11-30T01:34:57.271Z,0
2022-11-30T01:36:13.563Z,0
2022-11-30T01:37:29.867Z,0
2022-11-30T01:38:46.160Z,0
2022-11-30T01:40:02.448Z,0
2022-11-30T01:41:18.753Z,0
2022-11-30T01:42:34.063Z,0
2022-11-30T01:43:50.347Z,0
2022-11-30T01:45:06.636Z,0
2022-11-30T01:46:22.930Z,0
2022-11-30T01:47:39.232Z,0
2022-11-30T01:48:55.510Z,0
2022-11-30T01:50:11.820Z,0
2022-11-30T01:51:28.114Z,0
2022-11-30T01:52:44.402Z,0
2022-11-30T01:54:00.000Z,0
2022-11-30T01:55:16.978Z,0
2022-11-30T01:56:33.273Z,0
2022-11-30T01:57:49.563Z,0
2022-11-30T01:59:04.882Z,0
2022-11-30T02:00:21.178Z,0
2022-11-30T02:01:37.470Z,0
2022-11-30T02:02:53.752Z,0
2022-11-30T02:04:10.064Z,0
2022-11-30T02:05:26.340Z,0
2022-11-30T02:06:41.659Z,0
2022-11-30T02:07:57.956Z,0
2022-11-30T02:10:30.515Z,0
2022-11-30T02:11:46.796Z,0
2022-11-30T02:13:03.089Z,0
2022-11-30T02:14:19.391Z,0
2022-11-30T02:15:35.673Z,0
2022-11-30T02:16:51.969Z,0
2022-11-30T02:18:08.271Z,0
2022-11-30T02:19:24.566Z,0
2022-11-30T02:20:40.850Z,0
2022-11-30T02:21:57.145Z,0
2022-11-30T02:23:12.456Z,0
2022-11-30T02:24:28.751Z,0
2022-11-30T02:25:45.033Z,0
2022-11-30T02:27:01.328Z,0
2022-11-30T02:28:17.633Z,0
2022-11-30T02:29:33.924Z,0
2022-11-30T02:30:50.217Z,0
2022-11-30T02:32:06.516Z,0
2022-11-30T02:33:22.799Z,0
2022-11-30T02:34:39.103Z,0
2022-11-30T02:35:55.382Z,0
2022-11-30T02:37:11.677Z,0
2022-11-30T02:38:27.982Z,0
2022-11-30T02:39:43.285Z,0
2022-11-30T02:40:59.571Z,0
2022-11-30T02:42:15.869Z,0
2022-11-30T02:43:32.152Z,0
2022-11-30T02:44:48.449Z,0
2022-11-30T02:46:04.740Z,0
2022-11-30T02:47:21.050Z,0
2022-11-30T02:48:37.334Z,0
2022-11-30T02:49:53.639Z,0
2022-11-30T02:51:09.916Z,0
2022-11-30T02:52:26.212Z,0
2022-11-30T02:53:42.498Z,0
2022-11-30T02:54:58.808Z,0
2022-11-30T02:56:14.104Z,0
2022-11-30T02:57:30.398Z,0
2022-11-30T02:58:46.691Z,0
2022-11-30T03:00:02.999Z,0
2022-11-30T03:01:19.294Z,0
2022-11-30T03:02:35.586Z,0
2022-11-30T03:03:51.879Z,0
2022-11-30T03:06:24.455Z,0
2022-11-30T03:07:40.741Z,0
2022-11-30T03:08:57.049Z,0
2022-11-30T03:10:13.346Z,0
2022-11-30T03:11:29.640Z,0
2022-11-30T03:12:44.937Z,0
2022-11-30T03:14:01.225Z,0
2022-11-30T03:15:17.534Z,0
2022-11-30T03:16:33.812Z,0
2022-11-30T03:17:50.104Z,0
2022-11-30T03:19:06.400Z,0
2022-11-30T03:20:22.699Z,0
2022-11-30T03:21:38.996Z,0
2022-11-30T03:22:55.280Z,0
2022-11-30T03:24:11.569Z,0
2022-11-30T03:25:27.875Z,0
2022-11-30T03:26:44.154Z,0
2022-11-30T03:28:00.453Z,0
2022-11-30T03:29:15.768Z,0
2022-11-30T03:30:32.059Z,0
2022-11-30T03:31:48.351Z,0
2022-11-30T03:33:04.648Z,0
2022-11-30T03:34:20.935Z,0
2022-11-30T03:35:37.240Z,0
2022-11-30T03:36:53.515Z,0
2022-11-30T03:38:09.827Z,0
2022-11-30T03:39:26.106Z,0
2022-11-30T03:40:42.395Z,0
2022-11-30T03:41:58.689Z,0
2022-11-30T03:43:14.996Z,0
2022-11-30T03:44:31.276Z,0
2022-11-30T03:45:46.588Z,0
2022-11-30T03:47:02.893Z,0
2022-11-30T03:48:19.173Z,0
2022-11-30T03:49:35.478Z,0
2022-11-30T03:50:51.761Z,0
2022-11-30T03:52:08.066Z,0
2022-11-30T03:53:24.355Z,0
2022-11-30T03:54:40.637Z,0
2022-11-30T03:55:56.931Z,0
2022-11-30T03:57:13.227Z,0
2022-11-30T03:58:29.530Z,0
2022-11-30T03:59:45.819Z,0
2022-11-30T04:01:02.102Z,0
2022-11-30T04:02:17.425Z,0
2022-11-30T04:03:33.721Z,0
2022-11-30T04:04:50.011Z,0
2022-11-30T04:06:06.301Z,0
2022-11-30T04:07:22.592Z,0
2022-11-30T04:08:38.881Z,0
2022-11-30T04:09:55.188Z,0
2022-11-30T04:11:11.483Z,0
2022-11-30T04:12:27.772Z,0
2022-11-30T04:13:44.063Z,0
2022-11-30T04:15:00.356Z,0
2022-11-30T04:16:16.644Z,0
2022-11-30T04:17:32.929Z,0
2022-11-30T04:18:48.253Z,0
2022-11-30T04:20:04.529Z,0
2022-11-30T04:21:20.825Z,0
2022-11-30T04:22:37.131Z,0
2022-11-30T04:23:53.424Z,0
2022-11-30T04:25:09.718Z,0
2022-11-30T04:26:26.007Z,0
2022-11-30T04:27:42.304Z,0
2022-11-30T04:28:58.593Z,0
2022-11-30T04:30:14.875Z,0
2022-11-30T04:31:31.180Z,0
2022-11-30T04:32:47.464Z,0
2022-11-30T04:34:03.773Z,0
2022-11-30T04:35:19.072Z,0
2022-11-30T04:36:35.366Z,0
2022-11-30T04:37:51.659Z,0
2022-11-30T04:39:07.947Z,0
2022-11-30T04:40:24.251Z,0
2022-11-30T04:41:40.530Z,0
2022-11-30T04:42:56.835Z,0
2022-11-30T04:44:13.129Z,0
2022-11-30T04:45:29.425Z,0
2022-11-30T04:46:45.714Z,0
2022-11-30T04:48:02.006Z,0
2022-11-30T04:49:18.296Z,0
2022-11-30T04:50:34.598Z,0
2022-11-30T04:51:49.907Z,0
2022-11-30T04:53:06.195Z,0
2022-11-30T04:54:22.489Z,0
2022-11-30T04:55:38.770Z,0
2022-11-30T04:56:55.063Z,0
2022-11-30T04:58:11.370Z,0
2022-11-30T04:59:27.649Z,0
2022-11-30T05:00:43.953Z,0
2022-11-30T05:02:00.239Z,0
2022-11-30T05:03:16.535Z,0
2022-11-30T05:04:32.825Z,0
2022-11-30T05:05:49.131Z,0
2022-11-30T05:07:05.423Z,0
2022-11-30T05:08:20.730Z,0
2022-11-30T05:09:37.022Z,0
2022-11-30T05:10:53.320Z,0
2022-11-30T05:12:09.596Z,0
2022-11-30T05:13:25.890Z,0
2022-11-30T05:14:42.199Z,0
2022-11-30T05:15:58.491Z,0
2022-11-30T05:17:14.776Z,0
2022-11-30T05:18:31.069Z,0
2022-11-30T05:19:47.369Z,0
2022-11-30T05:21:03.645Z,0
2022-11-30T05:22:19.955Z,0
2022-11-30T05:23:36.241Z,0
2022-11-30T05:24:51.548Z,0
2022-11-30T05:26:07.852Z,0
2022-11-30T05:27:24.135Z,0
2022-11-30T05:28:40.429Z,0
2022-11-30T05:29:56.720Z,0
2022-11-30T05:31:13.009Z,0
2022-11-30T05:32:29.299Z,0
2022-11-30T05:35:01.888Z,0
2022-11-30T05:36:18.188Z,0
2022-11-30T05:37:34.481Z,0
2022-11-30T05:40:07.063Z,0
2022-11-30T05:41:22.367Z,0
2022-11-30T05:42:38.672Z,0
2022-11-30T05:43:54.955Z,0
2022-11-30T05:45:11.259Z,0
2022-11-30T05:46:27.542Z,0
2022-11-30T05:47:43.833Z,0
2022-11-30T05:49:00.144Z,0
2022-11-30T05:50:16.435Z,0
2022-11-30T05:51:32.713Z,0
2022-11-30T05:52:49.002Z,0
2022-11-30T05:54:05.308Z,0
2022-11-30T05:55:21.598Z,0
2022-11-30T05:56:37.898Z,0
2022-11-30T05:57:53.199Z,0
2022-11-30T05:59:09.503Z,0
2022-11-30T06:00:25.792Z,0
2022-11-30T06:01:42.071Z,0
2022-11-30T06:02:58.367Z,0
2022-11-30T06:04:14.675Z,0
2022-11-30T06:05:30.964Z,0
2022-11-30T06:06:47.253Z,0
2022-11-30T06:08:03.547Z,0
2022-11-30T06:09:19.840Z,0
2022-11-30T06:10:36.131Z,0
2022-11-30T06:11:52.426Z,0
2022-11-30T06:13:08.711Z,0
2022-11-30T06:14:24.033Z,0
2022-11-30T06:15:40.320Z,0
2022-11-30T06:16:56.605Z,0
2022-11-30T06:18:12.908Z,0
2022-11-30T06:19:29.192Z,0
2022-11-30T06:20:45.497Z,0
2022-11-30T06:22:00.815Z,0
2022-11-30T06:23:17.042Z,0
2022-11-30T06:24:33.349Z,0
2022-11-30T06:25:49.594Z,0
2022-11-30T06:27:05.833Z,0
2022-11-30T06:28:22.078Z,0
2022-11-30T06:29:38.305Z,0
2022-11-30T06:30:54.566Z,0
2022-11-30T06:32:10.794Z,0
2022-11-30T06:33:27.029Z,0
2022-11-30T06:34:43.327Z,0
2022-11-30T06:35:59.585Z,0
2022-11-30T06:37:15.814Z,0
2022-11-30T06:38:31.083Z,0
2022-11-30T06:39:47.318Z,0
2022-11-30T06:41:03.552Z,0
2022-11-30T06:42:19.786Z,0
2022-11-30T06:43:36.037Z,0
2022-11-30T06:44:52.269Z,0
2022-11-30T06:46:08.510Z,0
2022-11-30T06:47:24.751Z,0
2022-11-30T06:48:40.995Z,0
2022-11-30T06:49:57.225Z,0
2022-11-30T06:51:13.463Z,0
2022-11-30T06:52:29.715Z,0
2022-11-30T06:53:45.954Z,0
2022-11-30T06:55:01.206Z,0
2022-11-30T06:56:17.441Z,0
2022-11-30T06:57:33.686Z,0
2022-11-30T06:58:49.924Z,0
2022-11-30T07:00:06.154Z,0
2022-11-30T07:01:22.391Z,0
2022-11-30T07:02:38.643Z,0
2022-11-30T07:03:54.876Z,0
2022-11-30T07:05:11.114Z,0
2022-11-30T07:06:27.350Z,0
2022-11-30T07:07:43.601Z,0
2022-11-30T07:08:59.838Z,5
2022-11-30T07:10:16.060Z,5
2022-11-30T07:11:31.320Z,5
2022-11-30T07:12:47.569Z,5
2022-11-30T07:14:03.806Z,5
2022-11-30T07:15:20.051Z,5
2022-11-30T07:16:36.283Z,5
2022-11-30T07:17:52.525Z,5
2022-11-30T07:19:08.755Z,5
2022-11-30T07:20:25.010Z,5
2022-11-30T07:21:41.229Z,11
2022-11-30T07:22:57.476Z,11
2022-11-30T07:24:13.721Z,11
2022-11-30T07:25:29.963Z,11
2022-11-30T07:26:46.199Z,11
2022-11-30T07:28:01.445Z,11
2022-11-30T07:29:17.693Z,11
2022-11-30T07:30:33.932Z,16
2022-11-30T07:31:50.165Z,16
2022-11-30T07:33:06.402Z,16
2022-11-30T07:34:22.652Z,16
2022-11-30T07:35:38.882Z,16
2022-11-30T07:36:55.115Z,16
2022-11-30T07:38:11.357Z,16
2022-11-30T07:39:27.607Z,16
2022-11-30T07:40:43.835Z,22
2022-11-30T07:42:00.077Z,22
2022-11-30T07:43:16.000Z,22
2022-11-30T07:44:31.567Z,22
2022-11-30T07:45:47.813Z,22
2022-11-30T07:47:04.062Z,22
2022-11-30T07:48:20.293Z,22
2022-11-30T07:49:36.532Z,22
2022-11-30T07:50:52.763Z,28
2022-11-30T07:52:09.008Z,28
2022-11-30T07:53:25.246Z,28
2022-11-30T07:54:41.483Z,28
2022-11-30T07:55:57.728Z,28
2022-11-30T07:57:13.967Z,33
2022-11-30T07:58:30.212Z,33
2022-11-30T07:59:46.450Z,33
2022-11-30T08:01:01.705Z,33
2022-11-30T08:02:17.937Z,39
2022-11-30T08:03:34.185Z,39
2022-11-30T08:04:50.406Z,39
2022-11-30T08:06:06.654Z,39
2022-11-30T08:07:22.899Z,39
2022-11-30T08:08:39.139Z,45
2022-11-30T08:09:55.363Z,45
2022-11-30T08:11:11.620Z,45
2022-11-30T08:12:27.848Z,45
2022-11-30T08:13:44.092Z,45
2022-11-30T08:15:00.322Z,45
2022-11-30T08:16:16.572Z,45
2022-11-30T08:17:31.825Z,45
2022-11-30T08:18:48.051Z,45
2022-11-30T08:20:04.296Z,45
2022-11-30T08:21:20.540Z,39
2022-11-30T08:22:36.780Z,39
2022-11-30T08:23:53.024Z,39
2022-11-30T08:25:09.256Z,39
2022-11-30T08:26:25.494Z,39
2022-11-30T08:27:41.725Z,39
2022-11-30T08:28:57.982Z,39
2022-11-30T08:30:14.214Z,39
2022-11-30T08:31:30.446Z,39
2022-11-30T08:32:46.679Z,39
2022-11-30T08:34:01.953Z,39
2022-11-30T08:35:18.190Z,45
2022-11-30T08:36:34.421Z,45
2022-11-30T08:37:50.667Z,45
2022-11-30T08:39:06.903Z,45
2022-11-30T08:40:23.146Z,45
2022-11-30T08:41:39.373Z,45
2022-11-30T08:42:55.613Z,45
2022-11-30T08:44:11.865Z,45
2022-11-30T08:45:28.088Z,45
2022-11-30T08:46:44.330Z,45
2022-11-30T08:48:00.576Z,45
2022-11-30T08:49:16.818Z,45
2022-11-30T08:50:32.064Z,45
2022-11-30T08:51:48.315Z,45
2022-11-30T08:53:04.539Z,50
2022-11-30T08:54:20.785Z,50
2022-11-30T08:55:37.033Z,50
2022-11-30T08:56:53.274Z,50
2022-11-30T08:58:09.495Z,50
2022-11-30T08:59:25.735Z,50
2022-11-30T09:00:41.973Z,50
2022-11-30T09:01:58.230Z,50
2022-11-30T09:03:14.468Z,50
2022-11-30T09:04:30.691Z,56
2022-11-30T09:05:46.939Z,56
2022-11-30T09:07:02.186Z,56
2022-11-30T09:08:18.437Z,56
2022-11-30T09:09:34.674Z,56
2022-11-30T09:10:50.904Z,61
2022-11-30T09:12:07.142Z,61
2022-11-30T09:13:23.378Z,61
2022-11-30T09:14:39.620Z,61
2022-11-30T09:15:55.861Z,61
2022-11-30T09:17:12.108Z,67
2022-11-30T09:18:28.354Z,67
2022-11-30T09:19:44.589Z,67
2022-11-30T09:21:00.833Z,67
2022-11-30T09:22:17.064Z,73
2022-11-30T09:23:32.315Z,73
2022-11-30T09:24:48.556Z,73
2022-11-30T09:26:04.789Z,73
2022-11-30T09:27:21.029Z,73
2022-11-30T09:28:37.263Z,73
2022-11-30T09:29:53.502Z,73
2022-11-30T09:31:09.759Z,73
2022-11-30T09:32:25.987Z,73
2022-11-30T09:33:42.238Z,73
2022-11-30T09:34:58.472Z,73
2022-11-30T09:36:14.712Z,73
2022-11-30T09:37:30.951Z,73
2022-11-30T09:38:47.195Z,78
2022-11-30T09:40:02.429Z,78
2022-11-30T09:41:18.673Z,78
2022-11-30T09:42:34.920Z,78
2022-11-30T09:43:51.147Z,84
2022-11-30T09:45:07.389Z,84
2022-11-30T09:46:23.628Z,84
2022-11-30T09:47:39.874Z,84
2022-11-30T09:48:56.102Z,84
2022-11-30T09:50:12.350Z,90
2022-11-30T09:51:28.580Z,90
2022-11-30T09:52:44.823Z,90
2022-11-30T09:54:01.062Z,84
2022-11-30T09:55:17.310Z,84
2022-11-30T09:56:32.554Z,84
2022-11-30T09:57:48.801Z,84
2022-11-30T09:59:05.044Z,84
2022-11-30T10:00:21.280Z,84
2022-11-30T10:01:37.516Z,84
2022-11-30T10:02:53.754Z,84
2022-11-30T10:04:09.996Z,84
2022-11-30T10:05:26.236Z,84
2022-11-30T10:06:42.469Z,84
2022-11-30T10:07:58.712Z,84
2022-11-30T10:09:14.952Z,90
2022-11-30T10:10:31.183Z,95
2022-11-30T10:11:47.428Z,95
2022-11-30T10:13:02.673Z,95
2022-11-30T10:14:18.916Z,101
2022-11-30T10:15:35.169Z,101
2022-11-30T10:16:51.399Z,106
2022-11-30T10:18:07.644Z,106
2022-11-30T10:19:23.878Z,112
2022-11-30T10:20:40.110Z,118
2022-11-30T10:21:56.352Z,112
2022-11-30T10:23:12.599Z,112
2022-11-30T10:24:28.836Z,118
2022-11-30T10:25:45.070Z,118
2022-11-30T10:27:01.320Z,123
2022-11-30T10:28:17.557Z,123
2022-11-30T10:29:32.803Z,123
2022-11-30T10:30:49.050Z,123
2022-11-30T10:32:05.288Z,129
2022-11-30T10:33:21.528Z,135
2022-11-30T10:34:37.768Z,140
2022-11-30T10:37:10.238Z,157
2022-11-30T10:38:25.491Z,163
2022-11-30T10:39:41.740Z,168
2022-11-30T10:40:57.975Z,168
2022-11-30T10:42:14.216Z,174
2022-11-30T10:43:30.461Z,174
2022-11-30T10:44:46.702Z,180
2022-11-30T10:46:02.936Z,180
2022-11-30T10:47:19.166Z,185
2022-11-30T10:48:35.416Z,191
2022-11-30T10:49:51.655Z,196
2022-11-30T10:51:07.897Z,202
2022-11-30T10:52:24.117Z,213
2022-11-30T10:53:40.356Z,225
2022-11-30T10:54:55.619Z,236
2022-11-30T10:56:11.869Z,253
2022-11-30T10:57:28.090Z,264
2022-11-30T10:58:44.327Z,270
2022-11-30T11:00:00.572Z,270
2022-11-30T11:01:16.818Z,286
2022-11-30T11:02:33.061Z,286
2022-11-30T11:03:49.297Z,292
2022-11-30T11:05:05.522Z,292
2022-11-30T11:06:21.778Z,292
2022-11-30T11:07:38.009Z,281
2022-11-30T11:08:54.253Z,275
2022-11-30T11:10:10.485Z,275
2022-11-30T11:11:25.744Z,281
2022-11-30T11:12:41.988Z,298
2022-11-30T11:13:58.221Z,303
2022-11-30T11:15:14.452Z,303
2022-11-30T11:16:30.688Z,309
2022-11-30T11:17:46.930Z,298
2022-11-30T11:19:03.164Z,286
2022-11-30T11:20:19.406Z,286
2022-11-30T11:21:35.651Z,286
2022-11-30T11:22:51.886Z,286
2022-11-30T11:24:08.135Z,292
2022-11-30T11:25:24.377Z,292
2022-11-30T11:26:40.615Z,286
2022-11-30T11:27:55.870Z,286
2022-11-30T11:29:12.102Z,286
2022-11-30T11:30:28.332Z,292
2022-11-30T11:31:44.583Z,286
2022-11-30T11:33:00.815Z,286
2022-11-30T11:34:17.065Z,281
2022-11-30T11:35:33.288Z,275
2022-11-30T11:36:49.528Z,270
2022-11-30T11:38:05.765Z,264
2022-11-30T11:39:22.015Z,258
2022-11-30T11:40:38.240Z,258
2022-11-30T11:41:54.488Z,253
2022-11-30T11:43:10.728Z,253
2022-11-30T11:44:25.979Z,253
2022-11-30T11:45:42.225Z,253
2022-11-30T11:46:58.460Z,247
2022-11-30T11:48:14.696Z,247
2022-11-30T11:49:30.946Z,241
2022-11-30T11:50:47.173Z,241
2022-11-30T11:52:03.409Z,241
2022-11-30T11:53:19.655Z,241
2022-11-30T11:54:35.898Z,241
2022-11-30T11:55:52.127Z,354
2022-11-30T11:57:08.379Z,466
2022-11-30T11:58:24.606Z,506
2022-11-30T11:59:40.842Z,675
2022-11-30T12:00:56.104Z,1395
2022-11-30T12:02:12.350Z,1704
2022-11-30T12:03:28.588Z,1569
2022-11-30T12:04:44.824Z,1530
2022-11-30T12:06:01.065Z,1530
2022-11-30T12:07:17.298Z,1552
2022-11-30T12:08:33.543Z,1513
2022-11-30T12:09:49.782Z,1676
2022-11-30T12:11:06.020Z,1732
2022-11-30T12:12:22.260Z,1642
2022-11-30T12:13:38.485Z,1518
2022-11-30T12:14:54.722Z,1518
2022-11-30T12:16:10.969Z,1597
2022-11-30T12:17:26.230Z,1670
2022-11-30T12:18:42.463Z,1136
2022-11-30T12:19:58.707Z,613
2022-11-30T12:21:14.935Z,528
2022-11-30T12:22:31.176Z,607
2022-11-30T12:23:47.410Z,1175
2022-11-30T12:25:03.660Z,1535
2022-11-30T12:26:19.896Z,1440
2022-11-30T12:27:36.137Z,1327
2022-11-30T12:28:52.371Z,1136
2022-11-30T12:30:08.600Z,911
2022-11-30T12:31:24.838Z,787
2022-11-30T12:32:41.084Z,680
2022-11-30T12:33:56.335Z,635
2022-11-30T12:35:12.572Z,613
2022-11-30T12:36:28.818Z,562
2022-11-30T12:37:45.056Z,511
2022-11-30T12:39:01.299Z,534
2022-11-30T12:40:17.525Z,450
2022-11-30T12:41:33.762Z,354
2022-11-30T12:42:50.005Z,191
2022-11-30T12:44:06.242Z,174
2022-11-30T12:45:22.479Z,157
2022-11-30T12:46:38.722Z,174
2022-11-30T12:47:54.965Z,213
2022-11-30T12:49:11.190Z,230
2022-11-30T12:50:26.460Z,247
2022-11-30T12:51:42.685Z,264
2022-11-30T12:52:58.924Z,258
2022-11-30T12:54:15.163Z,225
2022-11-30T12:55:31.409Z,185
2022-11-30T12:56:47.637Z,168
2022-11-30T12:58:03.891Z,180
2022-11-30T12:59:20.119Z,236
2022-11-30T13:00:36.364Z,247
2022-11-30T13:01:52.586Z,230
2022-11-30T13:03:08.829Z,230
2022-11-30T13:04:25.084Z,236
2022-11-30T13:05:41.312Z,241
2022-11-30T13:06:56.572Z,258
2022-11-30T13:08:12.815Z,292
2022-11-30T13:09:29.047Z,303
2022-11-30T13:10:45.271Z,320
2022-11-30T13:12:01.528Z,315
2022-11-30T13:13:17.762Z,320
2022-11-30T13:14:33.995Z,326
2022-11-30T13:15:50.232Z,326
2022-11-30T13:17:06.480Z,320
2022-11-30T13:18:22.704Z,298
2022-11-30T13:19:38.943Z,281
2022-11-30T13:20:55.193Z,270
2022-11-30T13:22:11.431Z,258
2022-11-30T13:23:26.691Z,253
2022-11-30T13:24:42.931Z,247
2022-11-30T13:25:59.166Z,236
2022-11-30T13:27:15.397Z,230
2022-11-30T13:28:31.637Z,219
2022-11-30T13:29:47.877Z,219
2022-11-30T13:31:04.115Z,219
2022-11-30T13:32:20.361Z,208
2022-11-30T13:33:36.584Z,202
2022-11-30T13:34:52.821Z,196
2022-11-30T13:36:09.058Z,191
2022-11-30T13:37:25.308Z,185
2022-11-30T13:38:41.556Z,185
2022-11-30T13:39:57.781Z,185
2022-11-30T13:41:13.049Z,185
2022-11-30T13:42:29.270Z,185
2022-11-30T13:43:45.513Z,174
2022-11-30T13:45:01.759Z,168
2022-11-30T13:46:17.983Z,157
2022-11-30T13:47:34.229Z,140
2022-11-30T13:48:50.478Z,135
2022-11-30T13:50:06.707Z,123
2022-11-30T13:51:22.949Z,118
2022-11-30T13:52:39.187Z,112
2022-11-30T13:53:55.432Z,106
2022-11-30T13:55:11.672Z,106
2022-11-30T13:56:27.907Z,106
2022-11-30T13:57:43.165Z,101
2022-11-30T13:58:59.000Z,101
2022-11-30T14:00:15.636Z,101
2022-11-30T14:01:31.877Z,95
2022-11-30T14:02:48.122Z,95
2022-11-30T14:04:04.347Z,90
2022-11-30T14:05:20.581Z,84
2022-11-30T14:06:36.829Z,78
2022-11-30T14:07:53.070Z,73
2022-11-30T14:09:09.315Z,73
2022-11-30T14:10:25.547Z,67
2022-11-30T14:11:41.781Z,73
2022-11-30T14:12:58.027Z,73
2022-11-30T14:14:13.273Z,73
2022-11-30T14:15:29.512Z,67
2022-11-30T14:16:45.754Z,67
2022-11-30T14:18:02.004Z,61
2022-11-30T14:19:18.230Z,61
2022-11-30T14:20:34.470Z,61
2022-11-30T14:21:50.707Z,61
2022-11-30T14:23:06.949Z,61
2022-11-30T14:24:23.189Z,61
2022-11-30T14:25:39.428Z,56
2022-11-30T14:26:55.667Z,56
2022-11-30T14:28:11.911Z,56
2022-11-30T14:29:28.154Z,50
2022-11-30T14:30:43.408Z,50
2022-11-30T14:31:59.638Z,45
2022-11-30T14:33:15.872Z,45
2022-11-30T14:34:32.108Z,39
2022-11-30T14:35:48.357Z,33
2022-11-30T14:37:04.593Z,33
2022-11-30T14:38:20.834Z,33
2022-11-30T14:39:37.066Z,28
2022-11-30T14:40:53.316Z,28
2022-11-30T14:42:09.556Z,22
2022-11-30T14:43:25.794Z,22
2022-11-30T14:44:42.023Z,22
2022-11-30T14:45:58.273Z,22
2022-11-30T14:47:13.521Z,22
2022-11-30T14:48:29.763Z,16
2022-11-30T14:49:46.002Z,16
2022-11-30T14:51:02.236Z,16
2022-11-30T14:52:18.484Z,16
2022-11-30T14:53:33.750Z,16
2022-11-30T14:54:49.968Z,11
2022-11-30T14:56:06.228Z,11
2022-11-30T14:57:22.465Z,11
2022-11-30T14:58:38.703Z,11
2022-11-30T14:59:54.931Z,11
2022-11-30T15:01:11.169Z,5
2022-11-30T15:02:27.410Z,5
2022-11-30T15:03:43.657Z,5
2022-11-30T15:04:59.896Z,5
2022-11-30T15:06:16.135Z,5
2022-11-30T15:07:32.362Z,5
2022-11-30T15:08:48.609Z,5
2022-11-30T15:10:03.873Z,5
2022-11-30T15:11:20.092Z,0
2022-11-30T15:12:36.341Z,0
2022-11-30T15:13:52.576Z,0
2022-11-30T15:15:08.813Z,0
2022-11-30T15:16:25.048Z,0
2022-11-30T15:17:41.298Z,0
2022-11-30T15:18:57.532Z,0
2022-11-30T15:20:13.778Z,0
2022-11-30T15:21:30.010Z,0
2022-11-30T15:22:46.255Z,0
2022-11-30T15:24:02.502Z,0
2022-11-30T15:25:18.740Z,0
2022-11-30T15:26:33.991Z,0
2022-11-30T15:27:50.222Z,0
2022-11-30T15:29:06.458Z,0
2022-11-30T15:30:22.705Z,0
2022-11-30T15:31:38.936Z,0
2022-11-30T15:32:55.191Z,0
2022-11-30T15:34:11.418Z,0
2022-11-30T15:35:27.664Z,0
2022-11-30T15:36:43.893Z,0
2022-11-30T15:38:00.141Z,0
2022-11-30T15:39:16.388Z,0
2022-11-30T15:40:32.620Z,0
2022-11-30T15:41:48.851Z,0
2022-11-30T15:43:04.106Z,0
2022-11-30T15:44:20.356Z,0
2022-11-30T15:45:36.589Z,0
2022-11-30T15:46:52.890Z,0
2022-11-30T15:48:09.183Z,0
2022-11-30T15:49:25.470Z,0
2022-11-30T15:50:41.756Z,0
2022-11-30T15:51:58.049Z,0
2022-11-30T15:53:14.347Z,0
2022-11-30T15:54:30.650Z,0
2022-11-30T15:55:46.932Z,0
2022-11-30T15:57:03.234Z,0
2022-11-30T15:58:19.524Z,0
2022-11-30T15:59:34.838Z,0
2022-11-30T16:00:51.134Z,0
2022-11-30T16:02:07.406Z,0
2022-11-30T16:03:23.709Z,0
2022-11-30T16:04:40.006Z,0
2022-11-30T16:05:56.296Z,0
2022-11-30T16:07:12.594Z,0
2022-11-30T16:08:28.879Z,0
2022-11-30T16:09:45.170Z,0
2022-11-30T16:11:01.464Z,0
2022-11-30T16:12:17.766Z,0
2022-11-30T16:13:34.052Z,0
2022-11-30T16:14:50.355Z,0
2022-11-30T16:16:05.666Z,0
2022-11-30T16:17:21.949Z,0
2022-11-30T16:18:38.237Z,0
2022-11-30T16:19:54.537Z,0
2022-11-30T16:21:10.825Z,0
2022-11-30T16:22:27.132Z,0
2022-11-30T16:23:43.416Z,0
2022-11-30T16:24:59.698Z,0
2022-11-30T16:26:15.997Z,0
2022-11-30T16:27:32.298Z,0
2022-11-30T16:28:48.595Z,0
2022-11-30T16:30:04.882Z,0
2022-11-30T16:31:21.172Z,0
2022-11-30T16:32:36.492Z,0
2022-11-30T16:33:52.769Z,0
2022-11-30T16:35:09.076Z,0
2022-11-30T16:36:25.367Z,0
2022-11-30T16:37:41.654Z,0
2022-11-30T16:38:57.949Z,0
2022-11-30T16:40:14.246Z,0
2022-11-30T16:41:30.539Z,0
2022-11-30T16:42:46.829Z,0
2022-11-30T16:44:03.117Z,0
2022-11-30T16:45:19.405Z,0
2022-11-30T16:46:35.714Z,0
2022-11-30T16:47:51.999Z,0
2022-11-30T16:49:07.318Z,0
2022-11-30T16:50:23.600Z,0
2022-11-30T16:51:39.903Z,0
2022-11-30T16:52:56.197Z,0
2022-11-30T16:54:12.485Z,0
2022-11-30T16:55:28.786Z,0
2022-11-30T16:56:45.063Z,0
2022-11-30T16:58:01.372Z,0
2022-11-30T16:59:17.648Z,0
2022-11-30T17:00:33.942Z,0
2022-11-30T17:01:50.249Z,0
2022-11-30T17:03:06.527Z,0
2022-11-30T17:04:22.838Z,0
2022-11-30T17:05:38.139Z,0
2022-11-30T17:06:54.427Z,0
2022-11-30T17:08:10.719Z,0
2022-11-30T17:09:27.018Z,0
2022-11-30T17:10:43.303Z,0
2022-11-30T17:11:59.605Z,0
2022-11-30T17:13:15.891Z,0
2022-11-30T17:14:32.195Z,0
2022-11-30T17:15:48.492Z,0
2022-11-30T17:17:04.771Z,0
2022-11-30T17:18:21.080Z,0
2022-11-30T17:19:37.367Z,0
2022-11-30T17:20:53.648Z,0
2022-11-30T17:22:08.958Z,0
2022-11-30T17:23:25.264Z,0
2022-11-30T17:24:41.552Z,0
2022-11-30T17:25:57.854Z,0
2022-11-30T17:27:14.128Z,0
2022-11-30T17:28:30.440Z,0
2022-11-30T17:29:46.715Z,0
2022-11-30T17:31:03.024Z,0
2022-11-30T17:32:19.319Z,0
2022-11-30T17:33:35.610Z,0
2022-11-30T17:34:51.907Z,0
2022-11-30T17:36:08.190Z,0
2022-11-30T17:37:24.478Z,0
2022-11-30T17:38:39.801Z,0
2022-11-30T17:39:56.079Z,0
2022-11-30T17:41:12.385Z,0
2022-11-30T17:42:28.668Z,0
2022-11-30T17:43:44.961Z,0
2022-11-30T17:45:01.264Z,0
2022-11-30T17:46:17.000Z,0
2022-11-30T17:47:33.836Z,0
2022-11-30T17:48:50.146Z,0
2022-11-30T17:50:06.422Z,0
2022-11-30T17:51:22.727Z,0
2022-11-30T17:52:39.014Z,0
2022-11-30T17:53:55.321Z,0
2022-11-30T17:55:10.629Z,0
2022-11-30T17:56:26.915Z,0
2022-11-30T17:57:43.198Z,0
2022-11-30T17:58:59.506Z,0
2022-11-30T18:00:15.786Z,0
2022-11-30T18:01:32.094Z,0
2022-11-30T18:02:48.380Z,0
2022-11-30T18:04:04.682Z,0
2022-11-30T18:05:20.962Z,0
2022-11-30T18:06:37.263Z,0
2022-11-30T18:07:53.556Z,0
2022-11-30T18:09:09.836Z,0
2022-11-30T18:10:26.133Z,0
2022-11-30T18:11:41.443Z,0
2022-11-30T18:12:57.752Z,0
2022-11-30T18:14:14.027Z,0
2022-11-30T18:15:30.328Z,0
2022-11-30T18:16:46.616Z,0
2022-11-30T18:18:02.918Z,0
2022-11-30T18:19:19.217Z,0
2022-11-30T18:20:35.508Z,0
2022-11-30T18:21:51.794Z,0
2022-11-30T18:23:08.083Z,0
2022-11-30T18:24:24.373Z,0
2022-11-30T18:25:40.678Z,0
2022-11-30T18:26:56.975Z,0
2022-11-30T18:28:12.267Z,0